sensor_id;sensor_type;location;lat;lon;timestamp;P1;durP1;ratioP1;P2;durP2;ratioP2
53293;SDS011;39181;53.440;5.644;2023-03-01T00:01:23;18.80;;;10.68;;
53293;SDS011;39181;53.440;5.644;2023-03-01T00:03:50;18.02;;;10.77;;
53293;SDS011;39181;53.440;5.644;2023-03-01T00:06:17;16.25;;;10.27;;
53293;SDS011;39181;53.440;5.644;2023-03-01T00:08:43;15.13;;;9.82;;
53293;SDS011;39181;53.440;5.644;2023-03-01T00:13:42;18.83;;;11.05;;
53293;SDS011;39181;53.440;5.644;2023-03-01T00:16:12;13.70;;;8.98;;
53293;SDS011;39181;53.440;5.644;2023-03-01T00:18:40;15.57;;;9.63;;
53293;SDS011;39181;53.440;5.644;2023-03-01T00:21:05;18.67;;;10.07;;
53293;SDS011;39181;53.440;5.644;2023-03-01T00:23:33;16.55;;;9.57;;
53293;SDS011;39181;53.440;5.644;2023-03-01T00:25:59;15.50;;;9.90;;
53293;SDS011;39181;53.440;5.644;2023-03-01T00:28:25;17.38;;;10.63;;
53293;SDS011;39181;53.440;5.644;2023-03-01T00:30:51;21.70;;;11.73;;
53293;SDS011;39181;53.440;5.644;2023-03-01T00:33:17;17.77;;;10.35;;
53293;SDS011;39181;53.440;5.644;2023-03-01T00:35:42;16.20;;;9.75;;
53293;SDS011;39181;53.440;5.644;2023-03-01T00:38:09;22.42;;;10.43;;
53293;SDS011;39181;53.440;5.644;2023-03-01T00:40:34;14.38;;;9.32;;
53293;SDS011;39181;53.440;5.644;2023-03-01T00:43:01;20.65;;;10.95;;
53293;SDS011;39181;53.440;5.644;2023-03-01T00:45:28;17.88;;;10.32;;
53293;SDS011;39181;53.440;5.644;2023-03-01T00:47:55;14.48;;;9.35;;
53293;SDS011;39181;53.440;5.644;2023-03-01T00:50:21;17.42;;;10.57;;
53293;SDS011;39181;53.440;5.644;2023-03-01T00:52:46;17.92;;;10.48;;
53293;SDS011;39181;53.440;5.644;2023-03-01T00:55:16;16.90;;;10.45;;
53293;SDS011;39181;53.440;5.644;2023-03-01T00:57:42;18.40;;;10.18;;
53293;SDS011;39181;53.440;5.644;2023-03-01T01:00:08;18.25;;;11.25;;
53293;SDS011;39181;53.440;5.644;2023-03-01T01:02:34;17.25;;;10.65;;
53293;SDS011;39181;53.440;5.644;2023-03-01T01:05:00;22.27;;;11.52;;
53293;SDS011;39181;53.440;5.644;2023-03-01T01:07:26;20.13;;;10.90;;
53293;SDS011;39181;53.440;5.644;2023-03-01T01:09:52;20.95;;;12.15;;
53293;SDS011;39181;53.440;5.644;2023-03-01T01:12:17;16.35;;;10.68;;
53293;SDS011;39181;53.440;5.644;2023-03-01T01:14:43;20.52;;;11.18;;
53293;SDS011;39181;53.440;5.644;2023-03-01T01:17:08;19.67;;;12.50;;
53293;SDS011;39181;53.440;5.644;2023-03-01T01:19:34;17.80;;;10.80;;
53293;SDS011;39181;53.440;5.644;2023-03-01T01:22:00;19.67;;;11.38;;
53293;SDS011;39181;53.440;5.644;2023-03-01T01:24:26;20.10;;;12.20;;
53293;SDS011;39181;53.440;5.644;2023-03-01T01:26:51;18.20;;;11.32;;
53293;SDS011;39181;53.440;5.644;2023-03-01T01:29:17;21.95;;;12.55;;
53293;SDS011;39181;53.440;5.644;2023-03-01T01:31:43;23.05;;;13.63;;
53293;SDS011;39181;53.440;5.644;2023-03-01T01:34:12;20.98;;;12.63;;
53293;SDS011;39181;53.440;5.644;2023-03-01T01:36:43;19.15;;;11.20;;
53293;SDS011;39181;53.440;5.644;2023-03-01T01:39:12;21.48;;;13.02;;
53293;SDS011;39181;53.440;5.644;2023-03-01T01:41:38;23.13;;;12.75;;
53293;SDS011;39181;53.440;5.644;2023-03-01T01:44:19;20.63;;;12.93;;
53293;SDS011;39181;53.440;5.644;2023-03-01T01:49:46;18.88;;;12.88;;
53293;SDS011;39181;53.440;5.644;2023-03-01T01:54:48;16.10;;;11.35;;
53293;SDS011;39181;53.440;5.644;2023-03-01T01:57:29;19.33;;;12.48;;
53293;SDS011;39181;53.440;5.644;2023-03-01T02:00:00;18.02;;;12.00;;
53293;SDS011;39181;53.440;5.644;2023-03-01T02:02:29;21.40;;;11.57;;
53293;SDS011;39181;53.440;5.644;2023-03-01T02:04:58;19.35;;;11.57;;
53293;SDS011;39181;53.440;5.644;2023-03-01T02:07:35;19.85;;;12.95;;
53293;SDS011;39181;53.440;5.644;2023-03-01T02:10:03;20.88;;;12.55;;
53293;SDS011;39181;53.440;5.644;2023-03-01T02:12:29;20.65;;;12.15;;
53293;SDS011;39181;53.440;5.644;2023-03-01T02:14:55;19.98;;;12.48;;
53293;SDS011;39181;53.440;5.644;2023-03-01T02:17:21;18.27;;;12.40;;
53293;SDS011;39181;53.440;5.644;2023-03-01T02:22:23;20.88;;;13.15;;
53293;SDS011;39181;53.440;5.644;2023-03-01T02:30:18;17.98;;;11.77;;
53293;SDS011;39181;53.440;5.644;2023-03-01T02:32:45;16.38;;;11.20;;
53293;SDS011;39181;53.440;5.644;2023-03-01T02:35:13;17.83;;;11.55;;
53293;SDS011;39181;53.440;5.644;2023-03-01T02:37:41;17.02;;;10.10;;
53293;SDS011;39181;53.440;5.644;2023-03-01T02:40:08;17.70;;;10.73;;
53293;SDS011;39181;53.440;5.644;2023-03-01T02:42:45;16.83;;;10.85;;
53293;SDS011;39181;53.440;5.644;2023-03-01T02:45:16;18.05;;;11.40;;
53293;SDS011;39181;53.440;5.644;2023-03-01T02:47:41;17.23;;;9.93;;
53293;SDS011;39181;53.440;5.644;2023-03-01T02:55:26;20.52;;;10.27;;
53293;SDS011;39181;53.440;5.644;2023-03-01T02:57:52;15.52;;;9.43;;
53293;SDS011;39181;53.440;5.644;2023-03-01T03:00:24;14.88;;;10.30;;
53293;SDS011;39181;53.440;5.644;2023-03-01T03:02:55;15.85;;;10.30;;
53293;SDS011;39181;53.440;5.644;2023-03-01T03:05:23;17.88;;;10.23;;
53293;SDS011;39181;53.440;5.644;2023-03-01T03:07:51;16.27;;;10.88;;
53293;SDS011;39181;53.440;5.644;2023-03-01T03:10:21;15.93;;;10.38;;
53293;SDS011;39181;53.440;5.644;2023-03-01T03:12:51;19.48;;;10.20;;
53293;SDS011;39181;53.440;5.644;2023-03-01T03:15:19;16.05;;;9.45;;
53293;SDS011;39181;53.440;5.644;2023-03-01T03:17:46;18.80;;;9.63;;
53293;SDS011;39181;53.440;5.644;2023-03-01T03:20:12;20.77;;;10.65;;
53293;SDS011;39181;53.440;5.644;2023-03-01T03:22:43;17.63;;;10.27;;
53293;SDS011;39181;53.440;5.644;2023-03-01T03:25:11;14.90;;;9.80;;
53293;SDS011;39181;53.440;5.644;2023-03-01T03:27:37;16.98;;;9.90;;
53293;SDS011;39181;53.440;5.644;2023-03-01T03:30:04;14.57;;;10.00;;
53293;SDS011;39181;53.440;5.644;2023-03-01T03:32:35;16.52;;;9.05;;
53293;SDS011;39181;53.440;5.644;2023-03-01T03:35:01;13.48;;;8.77;;
53293;SDS011;39181;53.440;5.644;2023-03-01T03:37:34;15.23;;;8.70;;
53293;SDS011;39181;53.440;5.644;2023-03-01T03:40:22;17.85;;;9.60;;
53293;SDS011;39181;53.440;5.644;2023-03-01T03:42:48;20.83;;;9.98;;
53293;SDS011;39181;53.440;5.644;2023-03-01T03:45:14;15.05;;;9.32;;
53293;SDS011;39181;53.440;5.644;2023-03-01T03:47:41;14.45;;;9.27;;
53293;SDS011;39181;53.440;5.644;2023-03-01T03:50:07;18.70;;;9.70;;
53293;SDS011;39181;53.440;5.644;2023-03-01T03:52:33;15.68;;;9.73;;
53293;SDS011;39181;53.440;5.644;2023-03-01T03:54:59;14.07;;;8.48;;
53293;SDS011;39181;53.440;5.644;2023-03-01T03:57:25;17.13;;;9.45;;
53293;SDS011;39181;53.440;5.644;2023-03-01T03:59:50;14.75;;;9.00;;
53293;SDS011;39181;53.440;5.644;2023-03-01T04:02:16;16.83;;;9.63;;
53293;SDS011;39181;53.440;5.644;2023-03-01T04:04:47;19.85;;;9.45;;
53293;SDS011;39181;53.440;5.644;2023-03-01T04:07:15;15.50;;;9.50;;
53293;SDS011;39181;53.440;5.644;2023-03-01T04:09:41;16.48;;;10.10;;
53293;SDS011;39181;53.440;5.644;2023-03-01T04:12:08;19.50;;;9.38;;
53293;SDS011;39181;53.440;5.644;2023-03-01T04:14:34;16.75;;;9.80;;
53293;SDS011;39181;53.440;5.644;2023-03-01T04:16:59;16.13;;;10.23;;
53293;SDS011;39181;53.440;5.644;2023-03-01T04:19:26;16.40;;;10.20;;
53293;SDS011;39181;53.440;5.644;2023-03-01T04:21:52;18.13;;;10.30;;
53293;SDS011;39181;53.440;5.644;2023-03-01T04:24:18;18.42;;;11.30;;
53293;SDS011;39181;53.440;5.644;2023-03-01T04:26:44;21.90;;;11.55;;
53293;SDS011;39181;53.440;5.644;2023-03-01T04:29:09;18.05;;;11.52;;
53293;SDS011;39181;53.440;5.644;2023-03-01T04:31:35;16.55;;;10.75;;
53293;SDS011;39181;53.440;5.644;2023-03-01T04:34:01;23.52;;;10.20;;
53293;SDS011;39181;53.440;5.644;2023-03-01T04:36:28;19.75;;;9.48;;
53293;SDS011;39181;53.440;5.644;2023-03-01T04:38:54;15.23;;;9.80;;
53293;SDS011;39181;53.440;5.644;2023-03-01T04:41:21;19.10;;;10.45;;
53293;SDS011;39181;53.440;5.644;2023-03-01T04:43:48;17.70;;;10.48;;
53293;SDS011;39181;53.440;5.644;2023-03-01T04:46:16;16.38;;;10.40;;
53293;SDS011;39181;53.440;5.644;2023-03-01T04:48:44;18.48;;;11.00;;
53293;SDS011;39181;53.440;5.644;2023-03-01T04:51:12;15.15;;;9.82;;
53293;SDS011;39181;53.440;5.644;2023-03-01T04:53:41;16.58;;;10.40;;
53293;SDS011;39181;53.440;5.644;2023-03-01T04:56:07;17.27;;;10.25;;
53293;SDS011;39181;53.440;5.644;2023-03-01T04:58:33;19.23;;;11.15;;
53293;SDS011;39181;53.440;5.644;2023-03-01T05:00:59;18.25;;;10.77;;
53293;SDS011;39181;53.440;5.644;2023-03-01T05:03:24;20.40;;;11.13;;
53293;SDS011;39181;53.440;5.644;2023-03-01T05:05:51;18.67;;;11.13;;
53293;SDS011;39181;53.440;5.644;2023-03-01T05:08:17;18.92;;;12.07;;
53293;SDS011;39181;53.440;5.644;2023-03-01T05:10:52;18.80;;;12.05;;
53293;SDS011;39181;53.440;5.644;2023-03-01T05:13:20;16.88;;;11.02;;
53293;SDS011;39181;53.440;5.644;2023-03-01T05:15:59;18.90;;;11.48;;
53293;SDS011;39181;53.440;5.644;2023-03-01T05:18:26;18.38;;;11.48;;
53293;SDS011;39181;53.440;5.644;2023-03-01T05:21:01;17.38;;;10.43;;
53293;SDS011;39181;53.440;5.644;2023-03-01T05:23:29;16.05;;;11.20;;
53293;SDS011;39181;53.440;5.644;2023-03-01T05:25:59;18.98;;;11.65;;
53293;SDS011;39181;53.440;5.644;2023-03-01T05:28:26;18.00;;;12.57;;
53293;SDS011;39181;53.440;5.644;2023-03-01T05:30:53;18.08;;;11.15;;
53293;SDS011;39181;53.440;5.644;2023-03-01T05:33:19;19.83;;;11.45;;
53293;SDS011;39181;53.440;5.644;2023-03-01T05:35:47;17.77;;;11.60;;
53293;SDS011;39181;53.440;5.644;2023-03-01T05:38:13;18.75;;;12.07;;
53293;SDS011;39181;53.440;5.644;2023-03-01T05:40:40;19.35;;;12.20;;
53293;SDS011;39181;53.440;5.644;2023-03-01T05:43:11;17.52;;;11.18;;
53293;SDS011;39181;53.440;5.644;2023-03-01T05:45:37;16.95;;;12.18;;
53293;SDS011;39181;53.440;5.644;2023-03-01T05:48:05;22.60;;;12.50;;
53293;SDS011;39181;53.440;5.644;2023-03-01T05:50:32;17.55;;;12.00;;
53293;SDS011;39181;53.440;5.644;2023-03-01T05:53:05;23.13;;;13.50;;
53293;SDS011;39181;53.440;5.644;2023-03-01T05:55:41;22.63;;;13.15;;
53293;SDS011;39181;53.440;5.644;2023-03-01T05:58:09;18.25;;;11.98;;
53293;SDS011;39181;53.440;5.644;2023-03-01T06:00:38;20.60;;;11.63;;
53293;SDS011;39181;53.440;5.644;2023-03-01T06:03:04;20.83;;;13.05;;
53293;SDS011;39181;53.440;5.644;2023-03-01T06:05:30;21.08;;;13.20;;
53293;SDS011;39181;53.440;5.644;2023-03-01T06:07:58;21.02;;;12.60;;
53293;SDS011;39181;53.440;5.644;2023-03-01T06:10:25;15.82;;;10.10;;
53293;SDS011;39181;53.440;5.644;2023-03-01T06:12:50;17.02;;;11.18;;
53293;SDS011;39181;53.440;5.644;2023-03-01T06:15:16;17.08;;;10.82;;
53293;SDS011;39181;53.440;5.644;2023-03-01T06:17:42;18.52;;;9.15;;
53293;SDS011;39181;53.440;5.644;2023-03-01T06:20:10;16.30;;;10.40;;
53293;SDS011;39181;53.440;5.644;2023-03-01T06:22:46;16.83;;;9.80;;
53293;SDS011;39181;53.440;5.644;2023-03-01T06:25:15;18.08;;;10.60;;
53293;SDS011;39181;53.440;5.644;2023-03-01T06:27:42;15.18;;;10.15;;
53293;SDS011;39181;53.440;5.644;2023-03-01T06:30:09;17.33;;;9.77;;
53293;SDS011;39181;53.440;5.644;2023-03-01T06:32:36;14.07;;;9.60;;
53293;SDS011;39181;53.440;5.644;2023-03-01T06:35:03;14.98;;;9.00;;
53293;SDS011;39181;53.440;5.644;2023-03-01T06:37:29;15.68;;;10.00;;
53293;SDS011;39181;53.440;5.644;2023-03-01T06:39:55;16.80;;;10.55;;
53293;SDS011;39181;53.440;5.644;2023-03-01T06:42:20;20.23;;;10.52;;
53293;SDS011;39181;53.440;5.644;2023-03-01T06:44:46;21.10;;;10.32;;
53293;SDS011;39181;53.440;5.644;2023-03-01T06:47:12;16.35;;;10.60;;
53293;SDS011;39181;53.440;5.644;2023-03-01T06:49:37;14.32;;;9.52;;
53293;SDS011;39181;53.440;5.644;2023-03-01T06:52:03;16.02;;;9.40;;
53293;SDS011;39181;53.440;5.644;2023-03-01T06:54:29;19.52;;;10.07;;
53293;SDS011;39181;53.440;5.644;2023-03-01T06:56:54;19.25;;;10.48;;
53293;SDS011;39181;53.440;5.644;2023-03-01T06:59:20;13.30;;;9.10;;
53293;SDS011;39181;53.440;5.644;2023-03-01T07:01:46;15.82;;;9.90;;
53293;SDS011;39181;53.440;5.644;2023-03-01T07:04:12;17.63;;;9.93;;
53293;SDS011;39181;53.440;5.644;2023-03-01T07:06:38;18.80;;;10.20;;
53293;SDS011;39181;53.440;5.644;2023-03-01T07:09:04;14.70;;;9.70;;
53293;SDS011;39181;53.440;5.644;2023-03-01T07:11:30;16.35;;;10.52;;
53293;SDS011;39181;53.440;5.644;2023-03-01T07:13:55;17.52;;;9.32;;
53293;SDS011;39181;53.440;5.644;2023-03-01T07:16:21;16.92;;;10.80;;
53293;SDS011;39181;53.440;5.644;2023-03-01T07:18:47;18.55;;;10.35;;
53293;SDS011;39181;53.440;5.644;2023-03-01T07:21:13;13.52;;;9.48;;
53293;SDS011;39181;53.440;5.644;2023-03-01T07:23:39;17.75;;;10.30;;
53293;SDS011;39181;53.440;5.644;2023-03-01T07:26:05;15.10;;;9.77;;
53293;SDS011;39181;53.440;5.644;2023-03-01T07:28:31;14.80;;;10.30;;
53293;SDS011;39181;53.440;5.644;2023-03-01T07:31:01;17.83;;;9.77;;
53293;SDS011;39181;53.440;5.644;2023-03-01T07:33:27;15.70;;;10.25;;
53293;SDS011;39181;53.440;5.644;2023-03-01T07:35:57;15.88;;;10.07;;
53293;SDS011;39181;53.440;5.644;2023-03-01T07:38:24;16.73;;;10.45;;
53293;SDS011;39181;53.440;5.644;2023-03-01T07:40:49;14.43;;;9.50;;
53293;SDS011;39181;53.440;5.644;2023-03-01T07:43:15;18.58;;;10.43;;
53293;SDS011;39181;53.440;5.644;2023-03-01T07:45:41;14.82;;;9.90;;
53293;SDS011;39181;53.440;5.644;2023-03-01T07:48:06;18.80;;;10.20;;
53293;SDS011;39181;53.440;5.644;2023-03-01T07:50:32;15.38;;;9.82;;
53293;SDS011;39181;53.440;5.644;2023-03-01T07:52:57;16.73;;;9.13;;
53293;SDS011;39181;53.440;5.644;2023-03-01T07:55:23;15.40;;;9.50;;
53293;SDS011;39181;53.440;5.644;2023-03-01T07:57:48;15.77;;;10.00;;
53293;SDS011;39181;53.440;5.644;2023-03-01T08:00:14;14.68;;;9.93;;
53293;SDS011;39181;53.440;5.644;2023-03-01T08:02:40;19.10;;;10.77;;
53293;SDS011;39181;53.440;5.644;2023-03-01T08:05:07;16.13;;;10.43;;
53293;SDS011;39181;53.440;5.644;2023-03-01T08:07:33;15.93;;;9.25;;
53293;SDS011;39181;53.440;5.644;2023-03-01T08:09:59;18.10;;;10.15;;
53293;SDS011;39181;53.440;5.644;2023-03-01T08:12:25;17.08;;;10.98;;
53293;SDS011;39181;53.440;5.644;2023-03-01T08:14:52;19.17;;;11.30;;
53293;SDS011;39181;53.440;5.644;2023-03-01T08:17:18;20.02;;;11.52;;
53293;SDS011;39181;53.440;5.644;2023-03-01T08:19:44;16.10;;;11.20;;
53293;SDS011;39181;53.440;5.644;2023-03-01T08:22:09;16.85;;;12.38;;
53293;SDS011;39181;53.440;5.644;2023-03-01T08:24:35;17.20;;;11.82;;
53293;SDS011;39181;53.440;5.644;2023-03-01T08:27:01;16.35;;;11.07;;
53293;SDS011;39181;53.440;5.644;2023-03-01T08:29:28;15.73;;;10.73;;
53293;SDS011;39181;53.440;5.644;2023-03-01T08:31:55;14.55;;;10.57;;
53293;SDS011;39181;53.440;5.644;2023-03-01T08:34:22;17.08;;;11.65;;
53293;SDS011;39181;53.440;5.644;2023-03-01T08:36:47;17.13;;;11.45;;
53293;SDS011;39181;53.440;5.644;2023-03-01T08:39:15;16.30;;;11.40;;
53293;SDS011;39181;53.440;5.644;2023-03-01T08:41:41;17.23;;;10.80;;
53293;SDS011;39181;53.440;5.644;2023-03-01T08:44:09;15.25;;;10.88;;
53293;SDS011;39181;53.440;5.644;2023-03-01T08:46:39;15.20;;;10.43;;
53293;SDS011;39181;53.440;5.644;2023-03-01T08:49:11;15.48;;;9.95;;
53293;SDS011;39181;53.440;5.644;2023-03-01T08:51:38;21.20;;;10.02;;
53293;SDS011;39181;53.440;5.644;2023-03-01T08:54:05;19.23;;;11.30;;
53293;SDS011;39181;53.440;5.644;2023-03-01T08:56:31;20.30;;;10.98;;
53293;SDS011;39181;53.440;5.644;2023-03-01T08:58:58;15.18;;;9.45;;
53293;SDS011;39181;53.440;5.644;2023-03-01T09:01:24;16.33;;;10.73;;
53293;SDS011;39181;53.440;5.644;2023-03-01T09:03:49;19.80;;;11.15;;
53293;SDS011;39181;53.440;5.644;2023-03-01T09:06:15;18.00;;;12.38;;
53293;SDS011;39181;53.440;5.644;2023-03-01T09:08:42;18.10;;;11.25;;
53293;SDS011;39181;53.440;5.644;2023-03-01T09:11:10;13.27;;;9.82;;
53293;SDS011;39181;53.440;5.644;2023-03-01T09:13:38;14.32;;;9.55;;
53293;SDS011;39181;53.440;5.644;2023-03-01T09:16:05;13.38;;;9.88;;
53293;SDS011;39181;53.440;5.644;2023-03-01T09:18:31;14.25;;;9.63;;
53293;SDS011;39181;53.440;5.644;2023-03-01T09:21:01;12.07;;;8.18;;
53293;SDS011;39181;53.440;5.644;2023-03-01T09:23:35;9.90;;;7.50;;
53293;SDS011;39181;53.440;5.644;2023-03-01T09:26:04;11.77;;;8.65;;
53293;SDS011;39181;53.440;5.644;2023-03-01T09:28:31;12.48;;;8.65;;
53293;SDS011;39181;53.440;5.644;2023-03-01T09:31:00;11.95;;;8.27;;
53293;SDS011;39181;53.440;5.644;2023-03-01T09:33:27;12.63;;;7.57;;
53293;SDS011;39181;53.440;5.644;2023-03-01T09:35:57;15.77;;;8.50;;
53293;SDS011;39181;53.440;5.644;2023-03-01T09:38:27;9.90;;;8.00;;
53293;SDS011;39181;53.440;5.644;2023-03-01T09:40:53;8.95;;;6.15;;
53293;SDS011;39181;53.440;5.644;2023-03-01T09:45:50;8.27;;;6.47;;
53293;SDS011;39181;53.440;5.644;2023-03-01T09:48:21;11.43;;;7.43;;
53293;SDS011;39181;53.440;5.644;2023-03-01T09:50:50;9.38;;;6.47;;
53293;SDS011;39181;53.440;5.644;2023-03-01T09:53:25;9.05;;;6.55;;
53293;SDS011;39181;53.440;5.644;2023-03-01T09:58:46;10.00;;;6.97;;
53293;SDS011;39181;53.440;5.644;2023-03-01T10:09:37;12.85;;;7.63;;
53293;SDS011;39181;53.440;5.644;2023-03-01T10:12:07;13.90;;;7.00;;
53293;SDS011;39181;53.440;5.644;2023-03-01T10:20:15;7.63;;;6.00;;
53293;SDS011;39181;53.440;5.644;2023-03-01T10:22:43;11.05;;;6.80;;
53293;SDS011;39181;53.440;5.644;2023-03-01T10:25:15;7.90;;;6.32;;
53293;SDS011;39181;53.440;5.644;2023-03-01T10:30:40;9.93;;;7.32;;
53293;SDS011;39181;53.440;5.644;2023-03-01T10:33:22;9.07;;;6.63;;
53293;SDS011;39181;53.440;5.644;2023-03-01T10:35:50;8.77;;;7.35;;
53293;SDS011;39181;53.440;5.644;2023-03-01T10:38:16;9.73;;;6.88;;
53293;SDS011;39181;53.440;5.644;2023-03-01T10:40:59;9.73;;;7.38;;
53293;SDS011;39181;53.440;5.644;2023-03-01T10:46:24;7.68;;;6.45;;
53293;SDS011;39181;53.440;5.644;2023-03-01T10:51:41;9.02;;;6.82;;
53293;SDS011;39181;53.440;5.644;2023-03-01T10:54:19;9.32;;;6.80;;
53293;SDS011;39181;53.440;5.644;2023-03-01T10:56:58;10.32;;;6.57;;
53293;SDS011;39181;53.440;5.644;2023-03-01T10:59:27;11.68;;;6.57;;
53293;SDS011;39181;53.440;5.644;2023-03-01T11:04:34;11.48;;;6.13;;
53293;SDS011;39181;53.440;5.644;2023-03-01T11:07:00;11.35;;;7.22;;
53293;SDS011;39181;53.440;5.644;2023-03-01T11:09:30;10.88;;;6.75;;
53293;SDS011;39181;53.440;5.644;2023-03-01T11:12:03;8.38;;;5.25;;
53293;SDS011;39181;53.440;5.644;2023-03-01T11:14:33;9.68;;;6.20;;
53293;SDS011;39181;53.440;5.644;2023-03-01T11:17:06;6.45;;;4.80;;
53293;SDS011;39181;53.440;5.644;2023-03-01T11:19:40;9.80;;;6.18;;
53293;SDS011;39181;53.440;5.644;2023-03-01T11:22:10;6.53;;;4.35;;
53293;SDS011;39181;53.440;5.644;2023-03-01T11:24:45;5.35;;;4.78;;
53293;SDS011;39181;53.440;5.644;2023-03-01T11:27:24;9.38;;;4.90;;
53293;SDS011;39181;53.440;5.644;2023-03-01T11:32:23;7.97;;;4.78;;
53293;SDS011;39181;53.440;5.644;2023-03-01T11:34:54;6.75;;;3.95;;
53293;SDS011;39181;53.440;5.644;2023-03-01T11:40:13;10.63;;;6.60;;
53293;SDS011;39181;53.440;5.644;2023-03-01T11:42:50;8.82;;;6.18;;
53293;SDS011;39181;53.440;5.644;2023-03-01T11:45:19;7.55;;;5.70;;
53293;SDS011;39181;53.440;5.644;2023-03-01T11:47:55;4.85;;;3.58;;
53293;SDS011;39181;53.440;5.644;2023-03-01T11:50:51;5.50;;;3.50;;
53293;SDS011;39181;53.440;5.644;2023-03-01T11:53:29;8.52;;;3.95;;
53293;SDS011;39181;53.440;5.644;2023-03-01T12:05:42;11.35;;;6.93;;
53293;SDS011;39181;53.440;5.644;2023-03-01T12:19:50;11.55;;;6.07;;
53293;SDS011;39181;53.440;5.644;2023-03-01T12:38:53;8.30;;;5.53;;
53293;SDS011;39181;53.440;5.644;2023-03-01T12:41:33;10.00;;;6.50;;
53293;SDS011;39181;53.440;5.644;2023-03-01T12:49:44;8.35;;;5.90;;
53293;SDS011;39181;53.440;5.644;2023-03-01T12:52:35;10.02;;;6.70;;
53293;SDS011;39181;53.440;5.644;2023-03-01T12:55:05;10.30;;;6.30;;
53293;SDS011;39181;53.440;5.644;2023-03-01T12:57:42;10.65;;;6.53;;
53293;SDS011;39181;53.440;5.644;2023-03-01T13:03:02;9.23;;;6.10;;
53293;SDS011;39181;53.440;5.644;2023-03-01T13:05:44;11.00;;;7.13;;
53293;SDS011;39181;53.440;5.644;2023-03-01T13:08:24;11.35;;;7.68;;
53293;SDS011;39181;53.440;5.644;2023-03-01T13:11:04;9.65;;;5.70;;
53293;SDS011;39181;53.440;5.644;2023-03-01T13:13:36;10.90;;;6.65;;
53293;SDS011;39181;53.440;5.644;2023-03-01T13:16:19;9.52;;;6.63;;
53293;SDS011;39181;53.440;5.644;2023-03-01T13:18:47;13.13;;;7.18;;
53293;SDS011;39181;53.440;5.644;2023-03-01T13:21:13;10.15;;;6.85;;
53293;SDS011;39181;53.440;5.644;2023-03-01T13:23:55;10.63;;;7.40;;
53293;SDS011;39181;53.440;5.644;2023-03-01T13:26:21;10.20;;;7.07;;
53293;SDS011;39181;53.440;5.644;2023-03-01T13:28:48;12.73;;;7.30;;
53293;SDS011;39181;53.440;5.644;2023-03-01T13:33:41;9.57;;;6.88;;
53293;SDS011;39181;53.440;5.644;2023-03-01T13:46:58;13.10;;;5.80;;
53293;SDS011;39181;53.440;5.644;2023-03-01T13:49:41;15.82;;;7.30;;
53293;SDS011;39181;53.440;5.644;2023-03-01T13:52:32;11.65;;;6.80;;
53293;SDS011;39181;53.440;5.644;2023-03-01T13:55:26;16.25;;;6.53;;
53293;SDS011;39181;53.440;5.644;2023-03-01T13:58:25;16.77;;;6.95;;
53293;SDS011;39181;53.440;5.644;2023-03-01T14:03:25;11.02;;;6.72;;
53293;SDS011;39181;53.440;5.644;2023-03-01T14:06:02;12.40;;;7.28;;
53293;SDS011;39181;53.440;5.644;2023-03-01T14:08:32;13.13;;;6.57;;
53293;SDS011;39181;53.440;5.644;2023-03-01T14:11:13;17.30;;;7.65;;
53293;SDS011;39181;53.440;5.644;2023-03-01T14:19:32;18.75;;;7.85;;
53293;SDS011;39181;53.440;5.644;2023-03-01T14:21:59;13.32;;;7.28;;
53293;SDS011;39181;53.440;5.644;2023-03-01T14:24:30;11.57;;;5.82;;
53293;SDS011;39181;53.440;5.644;2023-03-01T14:27:00;12.25;;;6.82;;
53293;SDS011;39181;53.440;5.644;2023-03-01T14:29:36;11.80;;;6.90;;
53293;SDS011;39181;53.440;5.644;2023-03-01T14:32:18;11.95;;;7.68;;
53293;SDS011;39181;53.440;5.644;2023-03-01T14:34:46;15.63;;;8.80;;
53293;SDS011;39181;53.440;5.644;2023-03-01T14:37:30;12.50;;;7.82;;
53293;SDS011;39181;53.440;5.644;2023-03-01T14:40:00;12.23;;;7.97;;
53293;SDS011;39181;53.440;5.644;2023-03-01T14:42:28;16.02;;;8.77;;
53293;SDS011;39181;53.440;5.644;2023-03-01T14:44:59;14.63;;;7.72;;
53293;SDS011;39181;53.440;5.644;2023-03-01T14:47:32;18.50;;;8.73;;
53293;SDS011;39181;53.440;5.644;2023-03-01T14:52:42;17.38;;;9.55;;
53293;SDS011;39181;53.440;5.644;2023-03-01T14:55:15;16.00;;;8.68;;
53293;SDS011;39181;53.440;5.644;2023-03-01T14:57:49;16.25;;;9.25;;
53293;SDS011;39181;53.440;5.644;2023-03-01T15:00:26;16.27;;;7.13;;
53293;SDS011;39181;53.440;5.644;2023-03-01T15:02:54;15.48;;;8.77;;
53293;SDS011;39181;53.440;5.644;2023-03-01T15:05:29;10.55;;;6.80;;
53293;SDS011;39181;53.440;5.644;2023-03-01T15:07:56;16.98;;;8.52;;
53293;SDS011;39181;53.440;5.644;2023-03-01T15:10:27;14.63;;;8.02;;
53293;SDS011;39181;53.440;5.644;2023-03-01T15:12:54;17.27;;;8.55;;
53293;SDS011;39181;53.440;5.644;2023-03-01T15:18:27;17.27;;;8.90;;
53293;SDS011;39181;53.440;5.644;2023-03-01T15:20:54;16.77;;;9.23;;
53293;SDS011;39181;53.440;5.644;2023-03-01T15:23:30;17.50;;;8.85;;
53293;SDS011;39181;53.440;5.644;2023-03-01T15:25:56;16.42;;;9.07;;
53293;SDS011;39181;53.440;5.644;2023-03-01T15:28:27;16.45;;;9.32;;
53293;SDS011;39181;53.440;5.644;2023-03-01T15:30:56;17.33;;;9.57;;
53293;SDS011;39181;53.440;5.644;2023-03-01T15:33:29;21.17;;;8.52;;
53293;SDS011;39181;53.440;5.644;2023-03-01T15:35:58;14.27;;;7.75;;
53293;SDS011;39181;53.440;5.644;2023-03-01T15:38:26;11.57;;;8.07;;
53293;SDS011;39181;53.440;5.644;2023-03-01T15:40:59;14.85;;;7.95;;
53293;SDS011;39181;53.440;5.644;2023-03-01T15:46:26;13.27;;;7.72;;
53293;SDS011;39181;53.440;5.644;2023-03-01T15:48:58;16.65;;;7.53;;
53293;SDS011;39181;53.440;5.644;2023-03-01T15:51:35;14.93;;;7.07;;
53293;SDS011;39181;53.440;5.644;2023-03-01T15:54:06;16.17;;;7.55;;
53293;SDS011;39181;53.440;5.644;2023-03-01T15:56:39;15.48;;;7.18;;
53293;SDS011;39181;53.440;5.644;2023-03-01T15:59:05;14.05;;;7.50;;
53293;SDS011;39181;53.440;5.644;2023-03-01T16:01:32;18.10;;;8.80;;
53293;SDS011;39181;53.440;5.644;2023-03-01T16:03:59;15.10;;;8.88;;
53293;SDS011;39181;53.440;5.644;2023-03-01T16:06:24;16.42;;;8.18;;
53293;SDS011;39181;53.440;5.644;2023-03-01T16:08:50;16.83;;;8.90;;
53293;SDS011;39181;53.440;5.644;2023-03-01T16:11:17;18.08;;;10.85;;
53293;SDS011;39181;53.440;5.644;2023-03-01T16:13:44;14.95;;;9.75;;
53293;SDS011;39181;53.440;5.644;2023-03-01T16:16:10;15.30;;;9.23;;
53293;SDS011;39181;53.440;5.644;2023-03-01T16:18:39;17.83;;;9.98;;
53293;SDS011;39181;53.440;5.644;2023-03-01T16:21:06;22.17;;;11.82;;
53293;SDS011;39181;53.440;5.644;2023-03-01T16:23:32;21.55;;;10.77;;
53293;SDS011;39181;53.440;5.644;2023-03-01T16:26:00;14.88;;;9.13;;
53293;SDS011;39181;53.440;5.644;2023-03-01T16:28:26;20.92;;;10.90;;
53293;SDS011;39181;53.440;5.644;2023-03-01T16:30:52;19.38;;;8.57;;
53293;SDS011;39181;53.440;5.644;2023-03-01T16:33:17;19.40;;;9.43;;
53293;SDS011;39181;53.440;5.644;2023-03-01T16:35:43;16.60;;;10.40;;
53293;SDS011;39181;53.440;5.644;2023-03-01T16:38:09;17.27;;;8.95;;
53293;SDS011;39181;53.440;5.644;2023-03-01T16:40:35;16.30;;;8.13;;
53293;SDS011;39181;53.440;5.644;2023-03-01T16:43:01;17.35;;;9.40;;
53293;SDS011;39181;53.440;5.644;2023-03-01T16:45:27;24.90;;;10.18;;
53293;SDS011;39181;53.440;5.644;2023-03-01T16:47:58;18.40;;;8.70;;
53293;SDS011;39181;53.440;5.644;2023-03-01T16:50:24;19.42;;;9.23;;
53293;SDS011;39181;53.440;5.644;2023-03-01T16:52:49;15.55;;;8.27;;
53293;SDS011;39181;53.440;5.644;2023-03-01T16:55:15;20.23;;;8.70;;